Wan Hai 508 — 9VJJ6 — position and weather

sailwx.info

Track history (hours):
 
Tides and Currents Weather Stations Pressure Air Temp Water Temp Dewpoint Dewpoint Depression Visibility Wind Speed Wind Dir Waves Ship Positions

Wan Hai 508

Last reported at 2015-Aug-30 15:33 UTC. Time now 2015-Sep-04 12:28 UTC.
Position N 03°35' E 100°43'.

Length 269 m; draft 11.3 m.

Type: Cargo ship. MMSI: 565567000.

Date/timePositionNaut miles runAvg speedWind from/ knotsBaromVisibWave heightAir tempDewpointWater temp
2015-Aug-30 15:33N 03°35' E 100°43'4020.2
2015-Aug-30 13:33N 03°10' E 101°15'10 4.8
2015-Aug-30 11:27N 03°02' E 101°21'0 0.0
2015-Aug-30 10:09N 03°02' E 101°21'0 0.0
2015-Aug-30 09:33N 03°02' E 101°21'0 0.0
2015-Aug-30 07:30N 03°02' E 101°21'0 0.0
2015-Aug-30 04:33N 03°02' E 101°21'0 0.0
2015-Aug-30 02:33N 03°02' E 101°21'0 0.0
2015-Aug-30 01:27N 03°02' E 101°21'0 0.0
2015-Aug-30 00:24N 03°02' E 101°21'0 0.0
2015-Aug-29 22:27N 03°02' E 101°21'0 0.0
2015-Aug-29 20:28N 03°02' E 101°21'2 1.9
2015-Aug-29 19:33N 03°00' E 101°21'5 5.1
2015-Aug-29 18:33N 02°56' E 101°18'0 0.0
2015-Aug-29 16:33N 02°56' E 101°18'0 0.1
2015-Aug-29 15:33N 02°56' E 101°18'0 0.0
2015-Aug-29 14:33N 02°56' E 101°18'12 1.5
2015-Aug-29 06:33N 02°44' E 101°18'0 0.0
2015-Aug-29 04:33N 02°44' E 101°18'0 0.0
2015-Aug-29 01:33N 02°44' E 101°18'0 0.1
2015-Aug-29 00:33N 02°44' E 101°18'0 0.0
2015-Aug-28 20:33N 02°44' E 101°18'0 0.0
2015-Aug-28 18:30N 02°44' E 101°18'0 0.0
2015-Aug-28 11:32N 02°44' E 101°19'0 0.0
2015-Aug-28 08:27N 02°44' E 101°19'0 0.1
2015-Aug-28 06:30N 02°44' E 101°18'0 0.0
2015-Aug-28 04:33N 02°44' E 101°18'0 0.0
2015-Aug-28 02:33N 02°44' E 101°18'0 0.0
2015-Aug-28 00:33N 02°44' E 101°18'0 0.1
2015-Aug-27 20:33N 02°44' E 101°18'0 0.1
2015-Aug-27 17:27N 02°44' E 101°18'5 1.4
2015-Aug-27 13:33N 02°41' E 101°23'1616.0
2015-Aug-27 12:33N 02°31' E 101°35'7715.1
2015-Aug-27 07:26N 01°46' E 102°38'6516.2
2015-Aug-27 03:27N 01°12' E 103°33'1314.8
2015-Aug-27 02:33N 01°09' E 103°46'8 8.0
2015-Aug-27 01:33N 01°15' E 103°51'1 0.9
2015-Aug-27 00:10N 01°16' E 103°50'0 0.0
2015-Aug-26 23:28N 01°16' E 103°50'0 0.0
2015-Aug-26 22:31N 01°16' E 103°50'0 0.0
2015-Aug-26 21:16N 01°16' E 103°50'0 0.0
2015-Aug-26 12:29N 01°16' E 103°50'0 0.0
2015-Aug-26 11:29N 01°16' E 103°50'0 0.0
2015-Aug-26 10:32N 01°16' E 103°50'0 0.0
2015-Aug-26 09:29N 01°16' E 103°50'0 0.0
2015-Aug-26 08:32N 01°16' E 103°50'0 0.0
2015-Aug-26 07:29N 01°16' E 103°50'2 1.9
2015-Aug-26 06:33N 01°15' E 103°52'3 2.7
2015-Aug-26 05:33N 01°13' E 103°53'9 8.8
2015-Aug-26 04:33N 01°08' E 103°46'1312.2
2015-Aug-26 03:31N 01°04' E 103°34'0 0.4
2015-Aug-26 02:29N 01°04' E 103°34'12614.1
2015-Aug-25 17:33N 02°14' E 101°50'49 8.2
2015-Aug-25 11:31N 02°47' E 101°13'0 0.0
2015-Aug-25 08:31N 02°47' E 101°13'30 1.7
2015-Aug-24 14:25N 03°17' E 101°08'0 0.1
2015-Aug-24 12:33N 03°17' E 101°08'1211.6
2015-Aug-24 11:33N 03°24' E 100°59'1515.2
2015-Aug-24 10:33N 03°36' E 100°48'10314.7
2015-Aug-24 03:33N 05°09' E 100°05'1515.5
2015-Aug-24 02:33N 05°25' E 100°05'1312.5
2015-Aug-24 01:30N 05°35' E 100°13'1213.2
2015-Aug-24 00:33N 05°26' E 100°21'1 0.7
2015-Aug-23 23:16N 05°25' E 100°22'0 0.0
2015-Aug-23 22:10N 05°25' E 100°22'0 0.0
2015-Aug-23 21:28N 05°25' E 100°22'0 0.0
2015-Aug-23 20:28N 05°25' E 100°22'0 0.0
2015-Aug-23 19:22N 05°25' E 100°22'0 0.0
2015-Aug-23 17:28N 05°25' E 100°22'0 0.0
2015-Aug-23 16:22N 05°25' E 100°22'0 0.0
2015-Aug-23 15:28N 05°25' E 100°22'0 0.0
2015-Aug-23 14:28N 05°25' E 100°22'0 0.1
2015-Aug-23 13:33N 05°26' E 100°22'1110.5
2015-Aug-23 12:32N 05°34' E 100°15'1312.7
2015-Aug-23 11:33N 05°37' E 100°03'2019.6
2015-Aug-23 10:32N 05°41' E 099°43'  
Track history (hours):
 
Tides and Currents Weather Stations Pressure Air Temp Water Temp Dewpoint Dewpoint Depression Visibility Wind Speed Wind Dir Waves Ship Positions

Wan Hai 508

Last reported at 2015-Aug-30 15:33 UTC. Time now 2015-Sep-04 12:28 UTC.
Position N 03°35' E 100°43'.

Length 269 m; draft 11.3 m.

Type: Cargo ship. MMSI: 565567000.

Date/timePositionNaut miles runAvg speedWind from/ knotsBaromVisibWave heightAir tempDewpointWater temp
2015-Aug-30 15:33N 03°35' E 100°43'4020.2
2015-Aug-30 13:33N 03°10' E 101°15'10 4.8
2015-Aug-30 11:27N 03°02' E 101°21'0 0.0
2015-Aug-30 10:09N 03°02' E 101°21'0 0.0
2015-Aug-30 09:33N 03°02' E 101°21'0 0.0
2015-Aug-30 07:30N 03°02' E 101°21'0 0.0
2015-Aug-30 04:33N 03°02' E 101°21'0 0.0
2015-Aug-30 02:33N 03°02' E 101°21'0 0.0
2015-Aug-30 01:27N 03°02' E 101°21'0 0.0
2015-Aug-30 00:24N 03°02' E 101°21'0 0.0
2015-Aug-29 22:27N 03°02' E 101°21'0 0.0
2015-Aug-29 20:28N 03°02' E 101°21'2 1.9
2015-Aug-29 19:33N 03°00' E 101°21'5 5.1
2015-Aug-29 18:33N 02°56' E 101°18'0 0.0
2015-Aug-29 16:33N 02°56' E 101°18'0 0.1
2015-Aug-29 15:33N 02°56' E 101°18'0 0.0
2015-Aug-29 14:33N 02°56' E 101°18'12 1.5
2015-Aug-29 06:33N 02°44' E 101°18'0 0.0
2015-Aug-29 04:33N 02°44' E 101°18'0 0.0
2015-Aug-29 01:33N 02°44' E 101°18'0 0.1
2015-Aug-29 00:33N 02°44' E 101°18'0 0.0
2015-Aug-28 20:33N 02°44' E 101°18'0 0.0
2015-Aug-28 18:30N 02°44' E 101°18'0 0.0
2015-Aug-28 11:32N 02°44' E 101°19'0 0.0
2015-Aug-28 08:27N 02°44' E 101°19'0 0.1
2015-Aug-28 06:30N 02°44' E 101°18'0 0.0
2015-Aug-28 04:33N 02°44' E 101°18'0 0.0
2015-Aug-28 02:33N 02°44' E 101°18'0 0.0
2015-Aug-28 00:33N 02°44' E 101°18'0 0.1
2015-Aug-27 20:33N 02°44' E 101°18'0 0.1
2015-Aug-27 17:27N 02°44' E 101°18'5 1.4
2015-Aug-27 13:33N 02°41' E 101°23'1616.0
2015-Aug-27 12:33N 02°31' E 101°35'7715.1
2015-Aug-27 07:26N 01°46' E 102°38'6516.2
2015-Aug-27 03:27N 01°12' E 103°33'1314.8
2015-Aug-27 02:33N 01°09' E 103°46'8 8.0
2015-Aug-27 01:33N 01°15' E 103°51'1 0.9
2015-Aug-27 00:10N 01°16' E 103°50'0 0.0
2015-Aug-26 23:28N 01°16' E 103°50'0 0.0
2015-Aug-26 22:31N 01°16' E 103°50'0 0.0
2015-Aug-26 21:16N 01°16' E 103°50'0 0.0
2015-Aug-26 12:29N 01°16' E 103°50'0 0.0
2015-Aug-26 11:29N 01°16' E 103°50'0 0.0
2015-Aug-26 10:32N 01°16' E 103°50'0 0.0
2015-Aug-26 09:29N 01°16' E 103°50'0 0.0
2015-Aug-26 08:32N 01°16' E 103°50'0 0.0
2015-Aug-26 07:29N 01°16' E 103°50'2 1.9
2015-Aug-26 06:33N 01°15' E 103°52'3 2.7
2015-Aug-26 05:33N 01°13' E 103°53'9 8.8
2015-Aug-26 04:33N 01°08' E 103°46'1312.2
2015-Aug-26 03:31N 01°04' E 103°34'0 0.4
2015-Aug-26 02:29N 01°04' E 103°34'12614.1
2015-Aug-25 17:33N 02°14' E 101°50'49 8.2
2015-Aug-25 11:31N 02°47' E 101°13'0 0.0
2015-Aug-25 08:31N 02°47' E 101°13'30 1.7
2015-Aug-24 14:25N 03°17' E 101°08'0 0.1
2015-Aug-24 12:33N 03°17' E 101°08'1211.6
2015-Aug-24 11:33N 03°24' E 100°59'1515.2
2015-Aug-24 10:33N 03°36' E 100°48'10314.7
2015-Aug-24 03:33N 05°09' E 100°05'1515.5
2015-Aug-24 02:33N 05°25' E 100°05'1312.5
2015-Aug-24 01:30N 05°35' E 100°13'1213.2
2015-Aug-24 00:33N 05°26' E 100°21'1 0.7
2015-Aug-23 23:16N 05°25' E 100°22'0 0.0
2015-Aug-23 22:10N 05°25' E 100°22'0 0.0
2015-Aug-23 21:28N 05°25' E 100°22'0 0.0
2015-Aug-23 20:28N 05°25' E 100°22'0 0.0
2015-Aug-23 19:22N 05°25' E 100°22'0 0.0
2015-Aug-23 17:28N 05°25' E 100°22'0 0.0
2015-Aug-23 16:22N 05°25' E 100°22'0 0.0
2015-Aug-23 15:28N 05°25' E 100°22'0 0.0
2015-Aug-23 14:28N 05°25' E 100°22'0 0.1
2015-Aug-23 13:33N 05°26' E 100°22'1110.5
2015-Aug-23 12:32N 05°34' E 100°15'1312.7
2015-Aug-23 11:33N 05°37' E 100°03'2019.6
2015-Aug-23 10:32N 05°41' E 099°43'  

Dump ship's entire track history